Time;durP1;ratioP1;P1;durP2;ratioP2;P2;SDS_P1;SDS_P2;PMS_P1;PMS_P2;Temp;Humidity;BMP_temperature;BMP_pressure;BME280_temperature;BME280_humidity;BME280_pressure;Samples;Min_cycle;Max_cycle;Signal;HPM_P1;HPM_P2
2022/06/26 00:01:38;;;;;;;12.63;8.60;;;16.80;99.90;;;;;;5088618;28;20033;-71
2022/06/26 00:04:04;;;;;;;12.80;8.82;;;16.80;99.90;;;;;;5087631;28;20127;-70
2022/06/26 00:06:30;;;;;;;10.25;8.30;;;16.80;99.90;;;;;;5086918;28;20342;-71
2022/06/26 00:08:55;;;;;;;10.27;9.15;;;16.60;99.90;;;;;;5090347;28;20039;-70
2022/06/26 00:11:21;;;;;;;12.82;9.40;;;16.70;99.90;;;;;;5093757;28;20111;-70
2022/06/26 00:13:48;;;;;;;12.23;9.13;;;16.80;99.90;;;;;;5091088;28;20120;-69
2022/06/26 00:16:14;;;;;;;15.45;10.10;;;16.80;99.90;;;;;;5091022;28;20092;-69
2022/06/26 00:18:41;;;;;;;10.75;8.88;;;16.80;99.90;;;;;;5093580;28;20024;-70
2022/06/26 00:21:07;;;;;;;14.85;9.85;;;16.70;99.90;;;;;;5097438;28;20016;-70
2022/06/26 00:23:34;;;;;;;16.80;10.40;;;16.70;99.90;;;;;;5091195;28;20029;-70
2022/06/26 00:26:02;;;;;;;10.50;9.48;;;16.70;99.90;;;;;;5530398;22;20068;-70
2022/06/26 00:28:28;;;;;;;15.18;9.45;;;16.60;99.90;;;;;;5093827;28;20377;-70
2022/06/26 00:30:54;;;;;;;14.27;10.10;;;16.40;99.90;;;;;;5068427;28;20024;-70
2022/06/26 00:33:20;;;;;;;12.15;8.98;;;16.30;99.90;;;;;;5089305;28;20061;-70
2022/06/26 00:35:46;;;;;;;14.68;10.00;;;16.30;99.90;;;;;;5084300;28;20088;-70
2022/06/26 00:38:12;;;;;;;15.75;10.27;;;16.30;99.90;;;;;;5083006;28;20059;-70
2022/06/26 00:40:40;;;;;;;15.57;10.20;;;16.30;99.90;;;;;;5084958;28;20096;-70
2022/06/26 00:43:07;;;;;;;13.68;9.98;;;16.40;99.90;;;;;;5071454;28;20084;-70
2022/06/26 00:45:33;;;;;;;15.05;10.18;;;16.40;99.90;;;;;;5086655;28;20047;-71
2022/06/26 00:47:58;;;;;;;16.95;10.05;;;16.40;99.90;;;;;;5071032;28;20024;-70
2022/06/26 00:50:25;;;;;;;15.68;10.57;;;16.30;99.90;;;;;;5076286;28;20028;-70
2022/06/26 00:52:53;;;;;;;14.27;10.32;;;16.30;99.90;;;;;;5084729;28;20090;-70
2022/06/26 00:55:19;;;;;;;18.00;10.43;;;16.20;99.90;;;;;;5059752;28;20036;-71
2022/06/26 00:57:46;;;;;;;14.82;10.90;;;16.20;99.90;;;;;;5079614;28;20025;-70
2022/06/26 01:00:13;;;;;;;12.95;10.23;;;16.10;99.90;;;;;;5078329;28;20024;-70
2022/06/26 01:02:40;;;;;;;16.35;11.52;;;16.10;99.90;;;;;;5078609;28;20082;-70
2022/06/26 01:05:06;;;;;;;14.95;11.35;;;16.00;99.90;;;;;;5060461;28;20066;-70
2022/06/26 01:07:33;;;;;;;17.38;11.55;;;16.00;99.90;;;;;;5060799;28;20400;-70
2022/06/26 01:09:59;;;;;;;12.82;10.15;;;16.00;99.90;;;;;;5078465;28;20427;-70
2022/06/26 01:12:25;;;;;;;16.02;10.73;;;16.00;99.90;;;;;;5059953;28;20025;-70
2022/06/26 01:14:51;;;;;;;15.27;10.00;;;16.00;99.90;;;;;;5059491;28;20028;-71
2022/06/26 01:17:17;;;;;;;14.68;9.85;;;16.10;99.90;;;;;;5059765;28;20036;-70
2022/06/26 01:19:44;;;;;;;10.25;9.02;;;16.00;99.90;;;;;;5061448;28;20368;-69
2022/06/26 01:22:10;;;;;;;14.05;10.20;;;16.00;99.90;;;;;;5066966;28;20028;-70
2022/06/26 01:24:36;;;;;;;12.45;9.60;;;16.10;99.90;;;;;;5063725;28;20036;-70
2022/06/26 01:27:03;;;;;;;13.80;9.70;;;16.10;99.90;;;;;;5060735;28;20049;-70
2022/06/26 01:29:29;;;;;;;13.07;8.63;;;16.10;99.90;;;;;;5061347;28;20033;-69
2022/06/26 01:31:56;;;;;;;14.30;8.93;;;16.10;99.90;;;;;;5061780;28;20025;-70
2022/06/26 01:34:23;;;;;;;11.82;7.90;;;16.10;99.90;;;;;;5064833;28;20388;-70
2022/06/26 01:36:56;;;;;;;12.63;8.20;;;16.00;99.90;;;;;;5060738;28;20048;-69
2022/06/26 01:39:22;;;;;;;13.02;8.20;;;15.80;99.90;;;;;;5061419;28;20102;-69
2022/06/26 01:41:49;;;;;;;8.98;7.85;;;15.90;99.90;;;;;;5062531;28;20045;-69
2022/06/26 01:44:16;;;;;;;11.43;8.30;;;15.90;99.90;;;;;;5059658;28;20040;-69
2022/06/26 01:46:41;;;;;;;14.07;8.18;;;15.90;99.90;;;;;;5060640;28;20384;-69
2022/06/26 01:49:08;;;;;;;14.00;7.60;;;15.80;99.90;;;;;;5059291;28;20044;-70
2022/06/26 01:51:36;;;;;;;9.27;7.78;;;15.70;99.90;;;;;;5060603;28;20100;-70
2022/06/26 01:54:02;;;;;;;10.88;7.57;;;15.70;99.90;;;;;;5059665;28;20465;-70
2022/06/26 01:56:28;;;;;;;12.82;7.38;;;15.50;99.90;;;;;;5061318;28;20104;-70
2022/06/26 01:58:54;;;;;;;11.38;6.95;;;15.50;99.90;;;;;;5061300;28;20060;-70
2022/06/26 02:01:33;;;;;;;11.55;7.43;;;15.50;99.90;;;;;;5059282;28;20061;-69
2022/06/26 02:03:59;;;;;;;11.32;7.28;;;15.40;99.90;;;;;;5059252;28;20035;-69
2022/06/26 02:06:25;;;;;;;11.43;7.50;;;15.40;99.90;;;;;;5060049;28;20359;-69
2022/06/26 02:08:53;;;;;;;8.82;6.93;;;15.30;99.90;;;;;;5059120;28;20041;-69
2022/06/26 02:14:03;;;;;;;12.63;7.90;;;15.20;99.90;;;;;;5059124;28;20033;-69
2022/06/26 02:16:39;;;;;;;9.32;7.05;;;15.10;99.90;;;;;;5059038;28;20036;-69
2022/06/26 02:19:07;;;;;;;14.57;7.30;;;15.10;99.90;;;;;;5043670;28;20278;-69
2022/06/26 02:21:38;;;;;;;9.40;7.32;;;15.00;99.90;;;;;;5059039;28;20366;-68
2022/06/26 02:24:04;;;;;;;9.98;7.32;;;15.00;99.90;;;;;;5058720;28;20056;-68
2022/06/26 02:26:30;;;;;;;11.70;7.70;;;15.00;99.90;;;;;;5058406;28;20321;-68
2022/06/26 02:28:57;;;;;;;15.48;7.65;;;14.90;99.90;;;;;;5042296;28;20049;-68
2022/06/26 02:31:23;;;;;;;12.13;7.35;;;14.80;99.90;;;;;;5058384;28;20064;-68
2022/06/26 02:33:49;;;;;;;14.45;7.60;;;14.80;99.90;;;;;;5058642;28;20055;-67
2022/06/26 02:36:15;;;;;;;13.55;7.65;;;14.80;99.90;;;;;;5058637;28;20305;-68
2022/06/26 02:38:42;;;;;;;10.43;7.07;;;14.90;99.90;;;;;;5059413;28;20037;-69
2022/06/26 02:41:08;;;;;;;11.70;7.88;;;14.90;99.90;;;;;;5058739;28;20040;-68
2022/06/26 02:43:35;;;;;;;9.98;7.20;;;14.90;99.90;;;;;;5058370;28;20032;-67
2022/06/26 02:46:07;;;;;;;9.20;6.63;;;14.90;99.90;;;;;;5058369;28;20073;-68
2022/06/26 02:48:32;;;;;;;9.68;7.22;;;14.90;99.90;;;;;;5041906;28;20064;-67
2022/06/26 02:50:58;;;;;;;12.48;6.60;;;14.90;99.90;;;;;;5058581;28;20036;-67
2022/06/26 02:53:24;;;;;;;9.55;7.15;;;14.90;99.90;;;;;;5041510;28;20442;-67
2022/06/26 02:55:51;;;;;;;11.27;7.00;;;14.90;99.90;;;;;;5059167;28;20108;-68
2022/06/26 02:58:17;;;;;;;7.95;6.72;;;14.90;99.90;;;;;;5041614;28;20413;-68
2022/06/26 03:00:52;;;;;;;14.52;7.05;;;14.80;99.90;;;;;;5042803;28;20040;-67
2022/06/26 03:03:19;;;;;;;10.40;6.93;;;14.80;99.90;;;;;;5025128;28;20086;-68
2022/06/26 03:05:45;;;;;;;8.98;6.60;;;14.80;99.90;;;;;;5058266;28;20128;-67
2022/06/26 03:08:11;;;;;;;11.60;6.68;;;14.70;99.90;;;;;;5057899;28;20056;-67
2022/06/26 03:10:37;;;;;;;11.07;7.13;;;14.70;99.90;;;;;;5058872;28;20300;-69
2022/06/26 03:13:03;;;;;;;10.15;7.03;;;14.70;99.90;;;;;;5058590;28;20025;-67
2022/06/26 03:15:30;;;;;;;9.98;7.32;;;14.70;99.90;;;;;;5057815;28;20028;-67
2022/06/26 03:17:59;;;;;;;11.02;6.88;;;14.60;99.90;;;;;;5057674;28;20059;-67
2022/06/26 03:20:26;;;;;;;12.20;7.22;;;14.70;99.90;;;;;;5041475;28;20144;-68
2022/06/26 03:22:52;;;;;;;12.45;7.32;;;14.70;99.90;;;;;;5057706;28;20124;-68
2022/06/26 03:25:19;;;;;;;9.98;6.90;;;14.60;99.90;;;;;;5041335;28;20315;-67
2022/06/26 03:27:45;;;;;;;9.40;6.93;;;14.60;99.90;;;;;;5057579;28;20110;-67
2022/06/26 03:30:14;;;;;;;12.27;6.85;;;14.60;99.90;;;;;;5041345;28;20033;-66
2022/06/26 03:32:45;;;;;;;9.68;6.97;;;14.60;99.90;;;;;;5041616;28;20037;-68
2022/06/26 03:35:11;;;;;;;9.43;6.65;;;14.70;99.90;;;;;;5058264;28;20075;-67
2022/06/26 03:37:37;;;;;;;10.93;6.75;;;14.70;99.90;;;;;;5057307;28;20074;-67
2022/06/26 03:40:06;;;;;;;8.85;6.82;;;14.80;99.90;;;;;;5057171;28;20380;-67
2022/06/26 03:42:32;;;;;;;11.25;6.72;;;14.90;99.90;;;;;;5057219;28;20060;-67
2022/06/26 03:44:58;;;;;;;12.50;6.78;;;14.80;99.90;;;;;;5058633;28;20032;-67
2022/06/26 03:47:24;;;;;;;9.52;6.97;;;14.90;99.90;;;;;;5040531;28;20024;-68
2022/06/26 03:49:53;;;;;;;10.70;6.47;;;14.90;99.90;;;;;;5040477;28;20043;-68
2022/06/26 03:52:21;;;;;;;8.90;6.47;;;14.90;99.90;;;;;;5057147;28;20020;-67
2022/06/26 03:54:48;;;;;;;8.25;6.30;;;14.90;99.90;;;;;;5056967;28;20163;-67
2022/06/26 03:57:17;;;;;;;13.77;8.45;;;14.90;99.90;;;;;;5056720;28;20383;-67
2022/06/26 03:59:43;;;;;;;13.60;8.77;;;14.90;99.90;;;;;;5056441;28;20033;-66
2022/06/26 04:02:11;;;;;;;10.63;5.88;;;14.80;99.90;;;;;;5056782;28;20047;-66
2022/06/26 04:04:37;;;;;;;7.97;6.15;;;14.80;99.90;;;;;;5056826;28;20033;-66
2022/06/26 04:07:03;;;;;;;10.85;6.22;;;14.70;99.90;;;;;;5056854;28;20346;-66
2022/06/26 04:09:34;;;;;;;9.10;6.28;;;14.70;99.90;;;;;;5056676;28;20353;-66
2022/06/26 04:12:00;;;;;;;12.35;6.32;;;14.80;99.90;;;;;;5056636;28;20067;-66
2022/06/26 04:14:31;;;;;;;8.88;6.15;;;14.80;99.90;;;;;;5056940;28;20029;-66
2022/06/26 04:16:57;;;;;;;9.43;6.20;;;14.70;99.90;;;;;;5056731;28;20344;-66
2022/06/26 04:19:24;;;;;;;10.50;6.25;;;14.70;99.90;;;;;;5056516;28;20115;-66
2022/06/26 04:21:50;;;;;;;9.13;6.93;;;14.60;99.90;;;;;;5056788;28;20437;-65
2022/06/26 04:24:15;;;;;;;9.23;6.38;;;14.70;99.90;;;;;;5056538;28;20092;-68
2022/06/26 04:26:42;;;;;;;11.43;6.65;;;14.70;99.90;;;;;;5068207;28;20363;-66
2022/06/26 04:29:08;;;;;;;10.43;6.72;;;14.70;99.90;;;;;;5077105;28;20038;-66
2022/06/26 04:31:37;;;;;;;11.70;6.85;;;14.70;99.90;;;;;;5044019;28;20028;-66
2022/06/26 04:34:03;;;;;;;8.73;6.68;;;14.70;99.90;;;;;;5059647;28;20281;-66
2022/06/26 04:36:29;;;;;;;9.23;6.40;;;14.70;99.90;;;;;;5060236;28;20120;-66
2022/06/26 04:38:56;;;;;;;11.88;7.20;;;14.80;99.90;;;;;;5059616;28;20067;-65
2022/06/26 04:41:34;;;;;;;9.77;5.85;;;14.90;99.90;;;;;;5043051;28;20415;-67
2022/06/26 04:44:10;;;;;;;7.55;6.00;;;14.90;99.90;;;;;;5077103;28;20032;-65
2022/06/26 04:46:37;;;;;;;9.20;6.15;;;14.90;99.90;;;;;;5059436;28;20055;-67
2022/06/26 04:49:04;;;;;;;9.20;6.55;;;14.90;99.90;;;;;;5059839;28;20025;-66
2022/06/26 04:51:30;;;;;;;10.13;5.95;;;15.00;99.90;;;;;;5059537;28;20024;-66
2022/06/26 04:53:57;;;;;;;8.38;5.90;;;15.10;99.90;;;;;;5042691;28;20036;-66
2022/06/26 04:56:23;;;;;;;9.55;5.90;;;15.10;99.90;;;;;;5076713;28;20027;-65
2022/06/26 04:58:56;;;;;;;8.20;5.60;;;15.30;99.90;;;;;;5059579;28;20116;-66
2022/06/26 05:01:25;;;;;;;9.57;5.68;;;15.30;99.90;;;;;;5059197;28;20033;-68
2022/06/26 05:04:15;;;;;;;9.43;6.03;;;15.50;99.90;;;;;;5066278;28;20043;-69
2022/06/26 05:06:45;;;;;;;9.02;5.75;;;15.50;99.90;;;;;;5043465;28;20033;-65
2022/06/26 05:09:23;;;;;;;7.78;5.18;;;15.40;99.90;;;;;;5059160;28;20396;-67
2022/06/26 05:11:49;;;;;;;7.88;6.28;;;15.30;99.90;;;;;;5059421;28;20067;-66
2022/06/26 05:14:17;;;;;;;8.18;5.97;;;15.40;99.90;;;;;;5042882;28;20114;-66
2022/06/26 05:16:53;;;;;;;13.38;5.28;;;15.50;99.90;;;;;;5059364;28;20389;-66
2022/06/26 05:19:33;;;;;;;6.90;5.40;;;15.50;99.90;;;;;;5059314;28;20074;-67
2022/06/26 05:22:02;;;;;;;12.68;6.38;;;15.50;99.90;;;;;;5076659;28;20032;-68
2022/06/26 05:24:32;;;;;;;8.75;5.30;;;15.50;99.90;;;;;;5044251;28;20063;-66
2022/06/26 05:26:59;;;;;;;9.90;5.35;;;15.60;99.90;;;;;;5058765;28;20052;-67
2022/06/26 05:29:28;;;;;;;5.40;4.90;;;15.60;99.90;;;;;;5059021;28;20097;-70
2022/06/26 05:31:56;;;;;;;6.38;5.07;;;15.60;99.90;;;;;;5059100;28;20029;-65
2022/06/26 05:34:22;;;;;;;8.15;5.40;;;15.70;99.90;;;;;;5042639;28;20021;-66
2022/06/26 05:36:49;;;;;;;8.60;5.38;;;15.70;99.90;;;;;;5059197;28;20074;-67
2022/06/26 05:39:15;;;;;;;9.05;5.20;;;15.80;99.90;;;;;;5077204;28;20024;-68
2022/06/26 05:41:41;;;;;;;8.45;5.30;;;15.70;99.90;;;;;;5077090;28;20124;-68
2022/06/26 05:44:07;;;;;;;9.25;4.90;;;15.60;99.90;;;;;;5042398;28;20300;-65
2022/06/26 05:46:33;;;;;;;8.50;4.65;;;15.50;99.90;;;;;;5059643;28;20040;-67
2022/06/26 05:49:17;;;;;;;9.57;4.65;;;15.60;99.90;;;;;;5060888;28;20032;-68
2022/06/26 05:52:00;;;;;;;6.55;4.68;;;15.80;99.90;;;;;;5060208;28;20423;-69
2022/06/26 05:54:49;;;;;;;7.15;4.60;;;15.80;99.90;;;;;;5039220;28;20040;-69
2022/06/26 05:57:35;;;;;;;9.82;4.72;;;15.80;99.90;;;;;;5076610;28;20052;-74
2022/06/26 06:00:19;;;;;;;8.65;4.82;;;15.80;99.90;;;;;;5060958;28;20389;-70
2022/06/26 06:02:46;;;;;;;7.22;4.25;;;15.80;99.90;;;;;;5059896;28;20063;-71
2022/06/26 06:05:14;;;;;;;8.98;4.68;;;15.80;99.90;;;;;;5043948;28;20323;-74
2022/06/26 06:07:40;;;;;;;8.48;4.32;;;15.70;99.90;;;;;;5062215;28;20278;-70
2022/06/26 06:10:07;;;;;;;7.53;5.00;;;15.70;99.90;;;;;;5063379;28;20035;-70
2022/06/26 06:12:35;;;;;;;8.25;4.47;;;15.70;99.90;;;;;;5046986;28;20323;-75
2022/06/26 06:15:03;;;;;;;5.25;4.70;;;15.90;99.90;;;;;;5047477;28;20032;-69
2022/06/26 06:17:35;;;;;;;9.25;4.90;;;16.10;99.90;;;;;;5081553;28;20044;-71
2022/06/26 06:20:08;;;;;;;5.55;4.10;;;16.00;99.90;;;;;;5047825;28;20051;-73
2022/06/26 06:22:46;;;;;;;7.00;4.38;;;16.20;99.90;;;;;;5051808;28;20036;-71
2022/06/26 06:25:12;;;;;;;7.40;3.92;;;16.50;99.90;;;;;;5064001;28;20028;-71
2022/06/26 06:27:39;;;;;;;5.90;4.30;;;16.40;99.90;;;;;;5030375;28;20052;-72
2022/06/26 06:30:12;;;;;;;8.48;4.30;;;16.30;99.90;;;;;;5063799;28;20028;-73
2022/06/26 06:32:40;;;;;;;6.85;4.53;;;16.20;99.90;;;;;;5046946;28;20289;-74
2022/06/26 06:35:13;;;;;;;9.38;4.50;;;16.50;99.90;;;;;;5065307;28;20028;-72
2022/06/26 06:37:41;;;;;;;8.60;4.60;;;16.50;99.90;;;;;;5046518;28;20028;-70
2022/06/26 06:40:08;;;;;;;6.90;4.57;;;16.60;99.90;;;;;;5063073;28;20029;-72
2022/06/26 06:42:40;;;;;;;5.80;4.43;;;16.50;99.90;;;;;;5047905;28;20037;-71
2022/06/26 06:45:14;;;;;;;6.47;3.70;;;16.60;99.90;;;;;;5048535;28;20331;-73
2022/06/26 06:47:50;;;;;;;6.50;4.30;;;17.00;99.90;;;;;;5064429;28;20036;-73
2022/06/26 06:50:36;;;;;;;8.20;4.47;;;16.90;99.90;;;;;;5090896;28;20059;-72
2022/06/26 06:53:02;;;;;;;6.90;4.00;;;16.90;99.90;;;;;;5068296;28;20059;-71
2022/06/26 06:55:28;;;;;;;5.05;3.63;;;17.10;99.90;;;;;;5062863;28;20021;-71
2022/06/26 06:57:56;;;;;;;6.43;3.90;;;16.80;99.90;;;;;;5065238;28;20021;-74
2022/06/26 07:00:22;;;;;;;5.90;3.95;;;16.80;99.90;;;;;;5047356;28;20470;-73
2022/06/26 07:02:48;;;;;;;7.13;4.00;;;16.90;99.90;;;;;;5047282;28;20044;-71
2022/06/26 07:05:17;;;;;;;4.45;3.88;;;16.90;99.90;;;;;;5029386;28;20036;-68
2022/06/26 07:07:42;;;;;;;6.40;3.78;;;16.60;99.90;;;;;;5063043;28;20047;-73
2022/06/26 07:10:09;;;;;;;5.43;3.70;;;16.50;99.90;;;;;;5046799;28;20395;-74
2022/06/26 07:12:35;;;;;;;6.47;4.03;;;16.80;99.90;;;;;;5063191;28;20033;-73
2022/06/26 07:15:02;;;;;;;6.22;4.10;;;17.00;99.90;;;;;;5081236;28;20093;-76
2022/06/26 07:17:30;;;;;;;7.15;3.78;;;17.10;99.90;;;;;;5061452;28;20031;-70
2022/06/26 07:19:58;;;;;;;7.18;4.70;;;17.20;99.90;;;;;;5079609;28;20048;-71
2022/06/26 07:22:24;;;;;;;5.22;4.20;;;16.90;99.90;;;;;;5030550;28;20032;-73
2022/06/26 07:24:58;;;;;;;10.18;3.83;;;16.70;99.90;;;;;;5016317;28;20296;-72
2022/06/26 07:27:32;;;;;;;7.47;4.28;;;16.60;99.90;;;;;;5046281;28;20052;-70
2022/06/26 07:29:58;;;;;;;7.00;4.50;;;16.60;99.90;;;;;;5061288;28;20033;-70
2022/06/26 07:32:24;;;;;;;6.47;4.30;;;16.50;99.90;;;;;;5079011;28;20016;-70
2022/06/26 07:34:52;;;;;;;8.05;4.18;;;16.50;99.90;;;;;;5045033;28;20075;-70
2022/06/26 07:37:19;;;;;;;8.05;4.40;;;16.80;99.90;;;;;;5061340;28;20024;-71
2022/06/26 07:39:45;;;;;;;7.82;4.40;;;17.10;99.90;;;;;;5027867;28;20503;-68
2022/06/26 07:42:12;;;;;;;4.20;3.50;;;17.30;99.90;;;;;;5061171;28;20063;-74
2022/06/26 07:44:40;;;;;;;7.63;4.30;;;17.40;99.90;;;;;;5060871;28;20033;-66
2022/06/26 07:47:10;;;;;;;7.32;4.20;;;17.50;99.90;;;;;;5061508;28;20332;-68
2022/06/26 07:49:54;;;;;;;6.70;4.68;;;17.50;99.90;;;;;;5060783;28;20071;-72
2022/06/26 07:52:20;;;;;;;8.07;4.03;;;17.70;99.90;;;;;;5078507;28;20063;-70
2022/06/26 07:54:46;;;;;;;6.50;4.15;;;18.30;99.90;;;;;;5078575;28;20078;-69
2022/06/26 07:57:12;;;;;;;6.22;4.35;;;18.30;99.90;;;;;;5061249;28;20024;-65
2022/06/26 07:59:38;;;;;;;6.07;4.43;;;18.00;99.90;;;;;;5077928;28;20028;-69
2022/06/26 08:02:04;;;;;;;6.63;4.50;;;17.80;99.90;;;;;;5027694;28;20064;-71
2022/06/26 08:04:30;;;;;;;7.53;4.90;;;18.00;99.90;;;;;;5060698;28;20042;-70
2022/06/26 08:06:56;;;;;;;5.43;4.70;;;18.10;99.90;;;;;;5079008;28;20361;-70
2022/06/26 08:09:22;;;;;;;6.68;4.70;;;18.30;99.90;;;;;;5078720;28;20094;-72
2022/06/26 08:11:48;;;;;;;5.40;4.32;;;18.50;99.90;;;;;;5060896;28;20091;-68
2022/06/26 08:14:14;;;;;;;8.63;5.10;;;18.70;99.90;;;;;;5077816;28;20059;-70
2022/06/26 08:16:39;;;;;;;5.80;4.07;;;18.40;99.90;;;;;;5027499;28;20028;-71
2022/06/26 08:19:06;;;;;;;6.70;4.10;;;18.80;99.90;;;;;;5078967;28;20028;-73
2022/06/26 08:24:17;;;;;;;7.75;4.25;;;19.40;99.90;;;;;;5063076;28;20040;-68
2022/06/26 08:26:43;;;;;;;5.28;4.50;;;19.50;99.90;;;;;;5060132;28;20048;-69
2022/06/26 08:29:09;;;;;;;9.23;5.07;;;18.60;99.90;;;;;;5059451;28;20123;-70
2022/06/26 08:31:34;;;;;;;4.70;4.05;;;18.80;99.90;;;;;;5077633;28;20107;-69
2022/06/26 08:34:00;;;;;;;9.02;4.28;;;18.80;99.90;;;;;;5060368;28;20036;-68
2022/06/26 08:36:26;;;;;;;5.55;4.80;;;18.70;99.90;;;;;;5060456;28;20017;-69
2022/06/26 08:38:52;;;;;;;7.63;5.60;;;18.60;99.90;;;;;;5043158;28;20039;-70
2022/06/26 08:41:24;;;;;;;6.65;4.75;;;18.60;99.90;;;;;;5059707;28;20345;-70
2022/06/26 08:43:51;;;;;;;6.72;4.63;;;18.70;99.90;;;;;;5077600;28;20044;-72
2022/06/26 08:46:23;;;;;;;9.50;5.28;;;19.30;99.90;;;;;;5060281;28;20024;-74
2022/06/26 08:48:51;;;;;;;7.47;4.30;;;19.60;99.90;;;;;;5059793;28;20028;-71
2022/06/26 08:51:18;;;;;;;7.68;4.40;;;19.40;99.90;;;;;;5077909;28;20016;-73
2022/06/26 08:53:45;;;;;;;7.32;4.35;;;19.40;99.90;;;;;;5077535;28;20051;-70
2022/06/26 08:56:11;;;;;;;5.78;3.78;;;19.60;99.90;;;;;;5076851;28;20021;-69
2022/06/26 08:58:37;;;;;;;6.53;3.78;;;19.40;99.90;;;;;;5060028;28;20043;-68
2022/06/26 09:01:05;;;;;;;7.90;3.60;;;19.30;99.90;;;;;;5060069;28;20047;-70
2022/06/26 09:03:32;;;;;;;12.07;4.40;;;19.40;99.90;;;;;;5077339;28;20031;-70
2022/06/26 09:05:58;;;;;;;4.32;3.20;;;19.70;99.90;;;;;;5060049;28;20047;-72
2022/06/26 09:08:26;;;;;;;6.82;3.42;;;19.90;99.90;;;;;;5077802;28;20464;-70
2022/06/26 09:10:51;;;;;;;8.77;3.50;;;19.60;99.90;;;;;;5060000;28;20045;-70
2022/06/26 09:13:17;;;;;;;6.40;3.65;;;19.70;99.90;;;;;;5027133;28;20025;-71
2022/06/26 09:15:45;;;;;;;6.78;4.25;;;20.20;99.90;;;;;;5060200;28;20032;-70
2022/06/26 09:18:12;;;;;;;6.80;3.35;;;20.20;99.90;;;;;;5059325;28;20021;-71
2022/06/26 09:20:51;;;;;;;7.85;3.80;;;20.10;99.90;;;;;;5076536;28;20064;-70
2022/06/26 09:23:17;;;;;;;5.70;3.22;;;20.10;99.90;;;;;;5076952;28;20119;-70
2022/06/26 09:25:44;;;;;;;6.03;4.18;;;20.50;99.90;;;;;;5059776;28;20443;-69
2022/06/26 09:28:19;;;;;;;8.35;3.70;;;20.40;99.90;;;;;;5042842;28;20123;-70
2022/06/26 09:31:04;;;;;;;8.60;3.55;;;20.50;99.90;;;;;;5077107;28;20029;-70
2022/06/26 09:33:35;;;;;;;5.47;3.40;;;20.40;99.90;;;;;;5076587;28;20094;-67
2022/06/26 09:36:03;;;;;;;8.88;3.65;;;20.20;99.90;;;;;;5076533;28;20020;-68
2022/06/26 09:38:33;;;;;;;5.57;3.28;;;20.00;99.90;;;;;;5076274;28;20115;-69
2022/06/26 09:41:07;;;;;;;5.78;3.33;;;20.20;99.90;;;;;;5077853;28;20170;-68
2022/06/26 09:43:33;;;;;;;5.78;3.70;;;20.50;99.90;;;;;;5080382;28;20039;-68
2022/06/26 09:46:02;;;;;;;7.95;3.80;;;20.10;99.90;;;;;;5080439;28;20025;-69
2022/06/26 09:48:28;;;;;;;6.88;3.90;;;20.50;99.90;;;;;;5080763;28;20039;-69
2022/06/26 09:50:55;;;;;;;7.18;4.05;;;20.50;99.90;;;;;;5080298;28;20419;-68
2022/06/26 09:53:23;;;;;;;7.13;4.18;;;20.60;99.90;;;;;;5062787;28;20029;-69
2022/06/26 09:55:50;;;;;;;6.68;4.32;;;20.20;99.90;;;;;;5080338;28;20020;-68
2022/06/26 09:58:17;;;;;;;8.23;4.13;;;20.40;99.90;;;;;;5080273;28;20389;-70
2022/06/26 10:06:25;;;;;;;7.35;4.00;;;20.40;99.90;;;;;;5080824;28;20075;-67
2022/06/26 10:06:26;;;;;;;7.18;4.38;;;21.30;99.90;;;;;;5080680;28;20028;-69
2022/06/26 10:08:59;;;;;;;6.63;4.50;;;21.30;99.90;;;;;;5080191;28;20048;-70
2022/06/26 10:11:28;;;;;;;10.20;4.70;;;20.90;99.90;;;;;;5046032;28;20032;-68
2022/06/26 10:14:00;;;;;;;7.28;4.10;;;20.50;99.90;;;;;;5062413;28;20035;-69
2022/06/26 10:16:52;;;;;;;9.20;4.72;;;20.70;99.90;;;;;;5062930;28;20354;-66
2022/06/26 10:19:36;;;;;;;6.95;4.20;;;21.20;99.90;;;;;;5080028;28;20025;-67
2022/06/26 10:22:02;;;;;;;10.43;4.30;;;21.00;99.90;;;;;;5079831;28;20048;-69
2022/06/26 10:24:28;;;;;;;9.13;4.40;;;20.50;99.90;;;;;;5079806;28;20181;-67
2022/06/26 10:26:56;;;;;;;7.82;4.47;;;20.50;99.90;;;;;;5079530;28;20147;-69
2022/06/26 10:29:40;;;;;;;7.10;4.70;;;20.30;99.90;;;;;;5079629;28;20075;-68
2022/06/26 10:32:08;;;;;;;6.50;4.30;;;20.80;99.90;;;;;;5079771;28;20388;-67
2022/06/26 10:34:33;;;;;;;11.45;4.30;;;20.80;99.90;;;;;;5079477;28;20037;-68
2022/06/26 10:37:02;;;;;;;7.50;4.57;;;20.90;99.90;;;;;;5061980;28;20032;-67
2022/06/26 10:39:43;;;;;;;4.95;4.00;;;20.80;99.90;;;;;;5079294;28;20028;-67
2022/06/26 10:45:10;;;;;;;5.25;3.95;;;21.60;99.90;;;;;;5079408;28;20032;-67
2022/06/26 10:47:55;;;;;;;7.90;4.22;;;21.50;99.90;;;;;;5079290;28;20032;-67
2022/06/26 10:50:35;;;;;;;8.63;4.60;;;21.10;99.90;;;;;;5061849;28;20040;-64
2022/06/26 10:53:23;;;;;;;7.00;4.80;;;21.30;99.90;;;;;;5061060;28;20032;-65
2022/06/26 10:55:51;;;;;;;6.80;4.70;;;21.70;99.90;;;;;;5045935;28;20049;-66
2022/06/26 10:58:42;;;;;;;9.80;5.38;;;21.50;99.90;;;;;;5078933;28;20296;-67
2022/06/26 11:01:10;;;;;;;9.77;4.80;;;21.80;99.90;;;;;;5070039;28;20286;-67
2022/06/26 11:03:37;;;;;;;6.82;4.43;;;21.70;99.90;;;;;;5079188;28;20043;-67
2022/06/26 11:06:04;;;;;;;6.53;5.38;;;22.00;99.90;;;;;;5078809;28;20070;-66
2022/06/26 11:08:36;;;;;;;6.22;4.93;;;21.20;99.90;;;;;;5078790;28;20392;-65
2022/06/26 11:11:06;;;;;;;7.07;4.57;;;21.90;99.90;;;;;;5061534;28;20127;-65
2022/06/26 11:13:33;;;;;;;8.52;4.82;;;21.90;99.90;;;;;;5078787;28;20107;-65
2022/06/26 11:15:59;;;;;;;8.10;4.70;;;21.90;99.90;;;;;;5078795;28;20029;-67
2022/06/26 11:18:25;;;;;;;9.35;5.47;;;21.90;99.90;;;;;;5061428;28;20036;-67
2022/06/26 11:20:54;;;;;;;8.43;5.50;;;22.00;99.90;;;;;;5061229;28;20358;-67
2022/06/26 11:23:28;;;;;;;7.63;5.13;;;21.80;99.90;;;;;;5061905;28;20405;-65
2022/06/26 11:25:57;;;;;;;8.07;4.97;;;22.00;99.90;;;;;;5078394;28;20044;-65
2022/06/26 11:28:32;;;;;;;8.45;4.55;;;21.90;99.90;;;;;;5060928;28;20474;-66
2022/06/26 11:30:59;;;;;;;6.30;4.15;;;22.40;99.90;;;;;;5060983;28;20032;-65
2022/06/26 11:33:30;;;;;;;7.00;4.22;;;24.50;99.90;;;;;;5044722;28;20107;-64
2022/06/26 11:36:04;;;;;;;6.57;3.88;;;25.00;99.90;;;;;;5078394;28;20020;-65
2022/06/26 11:38:31;;;;;;;5.80;4.03;;;24.60;99.90;;;;;;5078807;28;20021;-64
2022/06/26 11:41:05;;;;;;;5.93;3.38;;;26.20;99.90;;;;;;5078288;28;20048;-64
2022/06/26 11:43:32;;;;;;;5.15;3.17;;;26.60;99.90;;;;;;5044091;28;20040;-64
2022/06/26 11:46:02;;;;;;;5.72;3.08;;;26.50;99.90;;;;;;5044068;28;20032;-67
2022/06/26 11:48:29;;;;;;;5.88;3.60;;;25.70;99.90;;;;;;5078145;28;20047;-65
2022/06/26 11:50:57;;;;;;;8.52;3.97;;;26.50;99.90;;;;;;5078312;28;20040;-64
2022/06/26 11:53:31;;;;;;;6.18;3.78;;;26.90;99.90;;;;;;5077987;28;20048;-65
2022/06/26 11:55:59;;;;;;;5.50;3.95;;;26.10;99.90;;;;;;5078341;28;20111;-65
2022/06/26 11:58:31;;;;;;;4.35;3.38;;;24.80;99.90;;;;;;5078189;28;20032;-65
2022/06/26 12:01:04;;;;;;;7.30;4.00;;;24.40;99.90;;;;;;5077966;28;20039;-64
2022/06/26 12:03:29;;;;;;;8.05;4.30;;;24.60;99.90;;;;;;5078272;28;20033;-66
2022/06/26 12:05:55;;;;;;;5.40;3.70;;;24.70;99.90;;;;;;5077791;28;20312;-64
2022/06/26 12:08:21;;;;;;;7.07;4.00;;;25.10;99.90;;;;;;5060710;28;20043;-65
2022/06/26 12:10:53;;;;;;;6.35;3.45;;;26.20;99.90;;;;;;5060154;28;20044;-64
2022/06/26 12:13:33;;;;;;;5.93;3.50;;;28.00;99.90;;;;;;5077648;28;20321;-65
2022/06/26 12:16:10;;;;;;;4.65;3.33;;;29.60;96.00;;;;;;5077705;28;20024;-64
2022/06/26 12:18:38;;;;;;;5.10;3.30;;;29.10;96.50;;;;;;5077568;28;20056;-64
2022/06/26 12:21:20;;;;;;;5.05;3.42;;;28.90;97.00;;;;;;5077486;28;20107;-64
2022/06/26 12:23:48;;;;;;;7.55;3.63;;;30.40;94.20;;;;;;5077375;28;20107;-63
2022/06/26 12:26:17;;;;;;;5.57;3.45;;;30.30;91.40;;;;;;5077122;28;20059;-64
2022/06/26 12:29:00;;;;;;;6.10;3.28;;;29.70;92.70;;;;;;5077206;28;20029;-64
2022/06/26 12:31:26;;;;;;;;;;;28.60;95.70;;;;;;5077756;28;20029;-66
2022/06/26 12:33:52;;;;;;;4.32;2.45;;;27.40;98.00;;;;;;5077287;28;19920;-65
2022/06/26 12:36:18;;;;;;;5.28;2.20;;;25.90;99.90;;;;;;5077269;28;20058;-66
2022/06/26 12:38:45;;;;;;;4.07;1.77;;;27.00;99.90;;;;;;5077125;28;20039;-66
2022/06/26 12:41:18;;;;;;;3.30;1.95;;;27.20;99.90;;;;;;5060455;28;20036;-65
2022/06/26 12:43:48;;;;;;;5.07;1.85;;;27.40;99.90;;;;;;5077410;28;20032;-66
2022/06/26 12:46:14;;;;;;;3.60;1.63;;;28.40;96.10;;;;;;5059583;28;20021;-64
2022/06/26 12:48:41;;;;;;;3.22;1.60;;;29.00;94.50;;;;;;5059494;28;20028;-65
2022/06/26 12:51:08;;;;;;;4.45;1.52;;;28.60;95.40;;;;;;5077336;28;20106;-65
2022/06/26 12:53:33;;;;;;;5.97;1.80;;;28.00;96.70;;;;;;5076974;28;20040;-67
2022/06/26 12:55:59;;;;;;;5.20;1.60;;;27.50;99.10;;;;;;5076947;28;20332;-66
2022/06/26 12:58:26;;;;;;;3.67;1.25;;;25.80;99.90;;;;;;5076926;28;20311;-66
2022/06/26 13:00:51;;;;;;;3.85;1.27;;;25.00;99.90;;;;;;5076969;28;20028;-64
2022/06/26 13:03:17;;;;;;;3.53;1.48;;;24.70;99.90;;;;;;5059640;28;20100;-66